Bunkley, Mississippi
Current Conditions -  °F | °C
As of 5:53 PM on Monday 20 Oct 2014 (Local Time) from KMCB Reporting Station
Clear Clear  
Wind Chill: 74°   Ceiling: Unl
Heat Index: 74°   Visibility: 10mi
Dew Point: 49°   Wind: 0mph
Humidity: 41%   Direction: NA
Pressure: 30.01"   Gusts: NA
Location:  31.4031°N, 90.8369°W
Report Text: KMCB 202253Z AUTO 00000KT 10SM CLR 23/09 A3001 RMK AO2 SLP160 T02330094
Loading
Personal Weather Stations






























Interactive Weather Map
Tropical Storm Tracking
New forecast layout! Learn more

10-Day Weather Forecast

Advertisements
Track Severe Weather on mobile